sensor_id;sensor_type;location;lat;lon;timestamp;pressure;altitude;pressure_sealevel;temperature;humidity
62248;BME280;48237;50.140;8.486;2022-08-07T00:00:12;100414.84;;;14.79;43.71
62248;BME280;48237;50.140;8.486;2022-08-07T00:02:39;100413.31;;;15.21;42.74
62248;BME280;48237;50.140;8.486;2022-08-07T00:05:06;100414.00;;;14.78;43.81
62248;BME280;48237;50.140;8.486;2022-08-07T00:07:33;100403.76;;;15.75;42.09
62248;BME280;48237;50.140;8.486;2022-08-07T00:10:00;100405.98;;;15.27;41.62
62248;BME280;48237;50.140;8.486;2022-08-07T00:12:27;100401.92;;;15.07;43.09
62248;BME280;48237;50.140;8.486;2022-08-07T00:14:53;100401.65;;;14.18;44.16
62248;BME280;48237;50.140;8.486;2022-08-07T00:17:20;100406.39;;;14.60;43.78
62248;BME280;48237;50.140;8.486;2022-08-07T00:19:47;100398.00;;;15.04;43.02
62248;BME280;48237;50.140;8.486;2022-08-07T00:22:15;100393.55;;;14.78;43.65
62248;BME280;48237;50.140;8.486;2022-08-07T00:24:42;100387.06;;;15.39;42.00
62248;BME280;48237;50.140;8.486;2022-08-07T00:27:09;100388.42;;;15.25;42.71
62248;BME280;48237;50.140;8.486;2022-08-07T00:29:36;100383.11;;;14.94;43.25
62248;BME280;48237;50.140;8.486;2022-08-07T00:32:03;100378.22;;;15.08;42.81
62248;BME280;48237;50.140;8.486;2022-08-07T00:34:31;100378.64;;;15.38;41.73
62248;BME280;48237;50.140;8.486;2022-08-07T00:36:58;100377.94;;;14.99;42.40
62248;BME280;48237;50.140;8.486;2022-08-07T00:39:25;100376.33;;;15.31;42.08
62248;BME280;48237;50.140;8.486;2022-08-07T00:41:55;100369.92;;;15.25;41.19
62248;BME280;48237;50.140;8.486;2022-08-07T00:44:23;100370.88;;;15.69;41.29
62248;BME280;48237;50.140;8.486;2022-08-07T00:46:51;100371.36;;;15.18;42.00
62248;BME280;48237;50.140;8.486;2022-08-07T00:49:18;100373.55;;;14.92;42.41
62248;BME280;48237;50.140;8.486;2022-08-07T00:51:46;100368.93;;;15.50;41.87
62248;BME280;48237;50.140;8.486;2022-08-07T00:54:13;100370.98;;;15.37;41.98
62248;BME280;48237;50.140;8.486;2022-08-07T00:56:40;100366.69;;;15.39;42.34
62248;BME280;48237;50.140;8.486;2022-08-07T00:59:07;100365.30;;;15.02;42.72
62248;BME280;48237;50.140;8.486;2022-08-07T01:01:34;100364.27;;;15.35;42.38
62248;BME280;48237;50.140;8.486;2022-08-07T01:04:04;100362.48;;;15.14;42.47
62248;BME280;48237;50.140;8.486;2022-08-07T01:06:31;100367.28;;;15.95;41.13
62248;BME280;48237;50.140;8.486;2022-08-07T01:09:00;100368.91;;;15.77;40.91
62248;BME280;48237;50.140;8.486;2022-08-07T01:11:28;100367.84;;;15.63;41.54
62248;BME280;48237;50.140;8.486;2022-08-07T01:13:55;100368.42;;;14.89;43.13
62248;BME280;48237;50.140;8.486;2022-08-07T01:16:23;100367.07;;;14.84;43.12
62248;BME280;48237;50.140;8.486;2022-08-07T01:18:51;100368.61;;;15.15;41.64
62248;BME280;48237;50.140;8.486;2022-08-07T01:21:19;100365.24;;;15.29;42.21
62248;BME280;48237;50.140;8.486;2022-08-07T01:23:47;100366.35;;;15.27;42.72
62248;BME280;48237;50.140;8.486;2022-08-07T01:26:15;100358.68;;;15.07;43.22
62248;BME280;48237;50.140;8.486;2022-08-07T01:28:43;100361.06;;;14.80;44.30
62248;BME280;48237;50.140;8.486;2022-08-07T01:31:11;100359.63;;;15.00;43.90
62248;BME280;48237;50.140;8.486;2022-08-07T01:33:38;100361.92;;;14.75;43.38
62248;BME280;48237;50.140;8.486;2022-08-07T01:36:06;100354.00;;;15.47;42.66
62248;BME280;48237;50.140;8.486;2022-08-07T01:38:33;100353.98;;;15.03;42.79
62248;BME280;48237;50.140;8.486;2022-08-07T01:41:01;100356.83;;;14.89;42.98
62248;BME280;48237;50.140;8.486;2022-08-07T01:43:29;100356.25;;;15.64;41.81
62248;BME280;48237;50.140;8.486;2022-08-07T01:45:57;100358.57;;;15.31;42.39
62248;BME280;48237;50.140;8.486;2022-08-07T01:48:25;100360.13;;;15.08;43.42
62248;BME280;48237;50.140;8.486;2022-08-07T01:50:56;100363.69;;;14.67;44.04
62248;BME280;48237;50.140;8.486;2022-08-07T01:53:26;100358.01;;;15.62;42.24
62248;BME280;48237;50.140;8.486;2022-08-07T01:55:56;100365.44;;;14.98;43.08
62248;BME280;48237;50.140;8.486;2022-08-07T01:58:27;100361.63;;;14.80;43.53
62248;BME280;48237;50.140;8.486;2022-08-07T02:01:01;100357.02;;;15.38;41.82
62248;BME280;48237;50.140;8.486;2022-08-07T02:03:32;100356.26;;;15.19;42.62
62248;BME280;48237;50.140;8.486;2022-08-07T02:06:02;100361.34;;;15.25;42.27
62248;BME280;48237;50.140;8.486;2022-08-07T02:08:33;100359.66;;;15.08;42.97
62248;BME280;48237;50.140;8.486;2022-08-07T02:11:02;100362.54;;;14.61;44.55
62248;BME280;48237;50.140;8.486;2022-08-07T02:13:31;100355.21;;;15.12;42.94
62248;BME280;48237;50.140;8.486;2022-08-07T02:16:02;100358.06;;;15.09;42.89
62248;BME280;48237;50.140;8.486;2022-08-07T02:18:31;100356.18;;;14.72;43.43
62248;BME280;48237;50.140;8.486;2022-08-07T02:21:02;100353.44;;;15.43;42.69
62248;BME280;48237;50.140;8.486;2022-08-07T02:23:31;100346.34;;;14.57;43.38
62248;BME280;48237;50.140;8.486;2022-08-07T02:26:00;100351.45;;;15.83;42.08
62248;BME280;48237;50.140;8.486;2022-08-07T02:28:29;100360.30;;;14.47;44.94
62248;BME280;48237;50.140;8.486;2022-08-07T02:30:58;100356.27;;;15.07;43.16
62248;BME280;48237;50.140;8.486;2022-08-07T02:33:27;100354.14;;;14.58;44.04
62248;BME280;48237;50.140;8.486;2022-08-07T02:35:57;100357.53;;;14.16;44.17
62248;BME280;48237;50.140;8.486;2022-08-07T02:38:27;100345.18;;;14.86;43.56
62248;BME280;48237;50.140;8.486;2022-08-07T02:40:56;100345.49;;;14.66;43.93
62248;BME280;48237;50.140;8.486;2022-08-07T02:43:25;100345.14;;;14.96;43.09
62248;BME280;48237;50.140;8.486;2022-08-07T02:45:53;100343.88;;;15.20;42.91
62248;BME280;48237;50.140;8.486;2022-08-07T02:48:23;100347.26;;;14.66;43.98
62248;BME280;48237;50.140;8.486;2022-08-07T02:50:53;100346.33;;;15.11;43.00
62248;BME280;48237;50.140;8.486;2022-08-07T02:53:23;100343.12;;;14.70;43.73
62248;BME280;48237;50.140;8.486;2022-08-07T02:55:54;100344.09;;;14.20;44.14
62248;BME280;48237;50.140;8.486;2022-08-07T02:58:22;100336.06;;;14.40;44.22
62248;BME280;48237;50.140;8.486;2022-08-07T03:00:51;100328.55;;;14.88;43.30
62248;BME280;48237;50.140;8.486;2022-08-07T03:03:21;100327.65;;;15.03;43.56
62248;BME280;48237;50.140;8.486;2022-08-07T03:05:51;100328.26;;;14.89;43.34
62248;BME280;48237;50.140;8.486;2022-08-07T03:08:19;100328.23;;;14.89;43.09
62248;BME280;48237;50.140;8.486;2022-08-07T03:10:48;100330.19;;;14.90;43.17
62248;BME280;48237;50.140;8.486;2022-08-07T03:13:16;100327.47;;;14.95;42.97
62248;BME280;48237;50.140;8.486;2022-08-07T03:15:44;100327.80;;;14.54;44.36
62248;BME280;48237;50.140;8.486;2022-08-07T03:18:12;100324.91;;;14.47;44.25
62248;BME280;48237;50.140;8.486;2022-08-07T03:20:40;100325.18;;;14.67;44.10
62248;BME280;48237;50.140;8.486;2022-08-07T03:23:09;100328.05;;;14.57;43.80
62248;BME280;48237;50.140;8.486;2022-08-07T03:25:39;100310.11;;;14.52;44.28
62248;BME280;48237;50.140;8.486;2022-08-07T03:28:09;100314.23;;;14.44;44.43
62248;BME280;48237;50.140;8.486;2022-08-07T03:30:38;100311.08;;;14.82;44.05
62248;BME280;48237;50.140;8.486;2022-08-07T03:33:08;100310.86;;;15.12;43.22
62248;BME280;48237;50.140;8.486;2022-08-07T03:35:38;100313.03;;;14.61;43.69
62248;BME280;48237;50.140;8.486;2022-08-07T03:38:07;100313.88;;;14.62;43.29
62248;BME280;48237;50.140;8.486;2022-08-07T03:40:36;100317.69;;;15.49;42.02
62248;BME280;48237;50.140;8.486;2022-08-07T03:43:03;100319.90;;;14.49;43.74
62248;BME280;48237;50.140;8.486;2022-08-07T03:45:31;100317.34;;;14.82;43.02
62248;BME280;48237;50.140;8.486;2022-08-07T03:47:59;100314.43;;;14.71;42.94
62248;BME280;48237;50.140;8.486;2022-08-07T03:50:27;100314.25;;;14.71;43.79
62248;BME280;48237;50.140;8.486;2022-08-07T03:52:56;100318.86;;;13.81;45.78
62248;BME280;48237;50.140;8.486;2022-08-07T03:55:24;100318.30;;;13.46;47.06
62248;BME280;48237;50.140;8.486;2022-08-07T03:57:52;100318.96;;;13.79;45.80
62248;BME280;48237;50.140;8.486;2022-08-07T04:00:20;100317.13;;;14.43;45.33
62248;BME280;48237;50.140;8.486;2022-08-07T04:02:47;100315.14;;;14.37;44.96
62248;BME280;48237;50.140;8.486;2022-08-07T04:05:13;100319.85;;;14.51;44.73
62248;BME280;48237;50.140;8.486;2022-08-07T04:07:44;100320.33;;;14.54;44.27
62248;BME280;48237;50.140;8.486;2022-08-07T04:10:12;100324.11;;;14.12;45.11
62248;BME280;48237;50.140;8.486;2022-08-07T04:12:39;100328.41;;;14.00;46.02
62248;BME280;48237;50.140;8.486;2022-08-07T04:15:08;100322.64;;;14.65;44.48
62248;BME280;48237;50.140;8.486;2022-08-07T04:17:35;100326.90;;;14.35;45.25
62248;BME280;48237;50.140;8.486;2022-08-07T04:20:03;100319.92;;;14.99;42.95
62248;BME280;48237;50.140;8.486;2022-08-07T04:22:30;100320.51;;;15.04;43.57
62248;BME280;48237;50.140;8.486;2022-08-07T04:24:59;100322.33;;;14.99;43.77
62248;BME280;48237;50.140;8.486;2022-08-07T04:27:26;100329.81;;;14.48;44.45
62248;BME280;48237;50.140;8.486;2022-08-07T04:29:54;100329.43;;;14.54;44.53
62248;BME280;48237;50.140;8.486;2022-08-07T04:32:22;100332.22;;;14.82;44.45
62248;BME280;48237;50.140;8.486;2022-08-07T04:34:49;100334.37;;;14.72;43.48
62248;BME280;48237;50.140;8.486;2022-08-07T04:37:16;100344.26;;;14.02;45.48
62248;BME280;48237;50.140;8.486;2022-08-07T04:39:43;100340.48;;;14.26;45.48
62248;BME280;48237;50.140;8.486;2022-08-07T04:42:10;100339.10;;;14.70;44.63
62248;BME280;48237;50.140;8.486;2022-08-07T04:44:38;100341.62;;;14.51;45.19
62248;BME280;48237;50.140;8.486;2022-08-07T04:47:10;100340.64;;;14.65;44.20
62248;BME280;48237;50.140;8.486;2022-08-07T04:49:43;100338.35;;;14.84;44.23
62248;BME280;48237;50.140;8.486;2022-08-07T04:52:18;100338.75;;;15.02;43.97
62248;BME280;48237;50.140;8.486;2022-08-07T04:54:53;100339.74;;;15.05;43.72
62248;BME280;48237;50.140;8.486;2022-08-07T04:57:26;100339.99;;;14.91;43.87
62248;BME280;48237;50.140;8.486;2022-08-07T05:00:00;100345.39;;;14.72;45.15
62248;BME280;48237;50.140;8.486;2022-08-07T05:02:32;100348.11;;;15.21;43.22
62248;BME280;48237;50.140;8.486;2022-08-07T05:05:07;100346.71;;;15.55;42.96
62248;BME280;48237;50.140;8.486;2022-08-07T05:07:43;100348.06;;;15.19;43.82
62248;BME280;48237;50.140;8.486;2022-08-07T05:10:18;100352.90;;;15.11;44.09
62248;BME280;48237;50.140;8.486;2022-08-07T05:12:51;100360.28;;;15.93;42.15
62248;BME280;48237;50.140;8.486;2022-08-07T05:15:25;100354.86;;;16.14;41.73
62248;BME280;48237;50.140;8.486;2022-08-07T05:17:57;100356.39;;;15.20;44.18
62248;BME280;48237;50.140;8.486;2022-08-07T05:20:30;100356.33;;;15.46;42.48
62248;BME280;48237;50.140;8.486;2022-08-07T05:23:00;100360.57;;;15.62;43.02
62248;BME280;48237;50.140;8.486;2022-08-07T05:25:31;100364.67;;;15.24;43.18
62248;BME280;48237;50.140;8.486;2022-08-07T05:28:00;100367.94;;;15.64;42.90
62248;BME280;48237;50.140;8.486;2022-08-07T05:30:28;100370.94;;;15.89;42.26
62248;BME280;48237;50.140;8.486;2022-08-07T05:32:57;100367.55;;;16.21;41.83
62248;BME280;48237;50.140;8.486;2022-08-07T05:35:25;100370.59;;;16.05;41.99
62248;BME280;48237;50.140;8.486;2022-08-07T05:37:53;100371.76;;;15.07;44.21
62248;BME280;48237;50.140;8.486;2022-08-07T05:40:22;100373.72;;;15.38;43.03
62248;BME280;48237;50.140;8.486;2022-08-07T05:42:49;100377.18;;;15.83;42.88
62248;BME280;48237;50.140;8.486;2022-08-07T05:45:16;100377.27;;;16.20;43.33
62248;BME280;48237;50.140;8.486;2022-08-07T05:47:46;100379.32;;;15.41;43.23
62248;BME280;48237;50.140;8.486;2022-08-07T05:50:14;100371.52;;;16.37;41.66
62248;BME280;48237;50.140;8.486;2022-08-07T05:52:42;100377.81;;;15.79;42.60
62248;BME280;48237;50.140;8.486;2022-08-07T05:55:09;100386.64;;;16.86;40.81
62248;BME280;48237;50.140;8.486;2022-08-07T05:57:36;100387.57;;;16.16;41.41
62248;BME280;48237;50.140;8.486;2022-08-07T06:00:06;100386.35;;;15.59;42.93
62248;BME280;48237;50.140;8.486;2022-08-07T06:02:35;100389.91;;;16.02;42.01
62248;BME280;48237;50.140;8.486;2022-08-07T06:05:06;100394.42;;;16.04;42.20
62248;BME280;48237;50.140;8.486;2022-08-07T06:07:34;100390.54;;;15.50;43.49
62248;BME280;48237;50.140;8.486;2022-08-07T06:10:02;100389.42;;;15.72;43.99
62248;BME280;48237;50.140;8.486;2022-08-07T06:12:30;100391.98;;;16.08;42.26
62248;BME280;48237;50.140;8.486;2022-08-07T06:14:58;100396.64;;;16.27;42.03
62248;BME280;48237;50.140;8.486;2022-08-07T06:17:26;100395.34;;;16.02;41.74
62248;BME280;48237;50.140;8.486;2022-08-07T06:19:55;100396.23;;;16.68;41.75
62248;BME280;48237;50.140;8.486;2022-08-07T06:22:24;100396.49;;;16.03;43.08
62248;BME280;48237;50.140;8.486;2022-08-07T06:24:52;100398.20;;;16.07;43.17
62248;BME280;48237;50.140;8.486;2022-08-07T06:27:20;100405.37;;;16.63;41.56
62248;BME280;48237;50.140;8.486;2022-08-07T06:29:48;100404.33;;;16.14;42.65
62248;BME280;48237;50.140;8.486;2022-08-07T06:32:15;100395.62;;;16.20;42.52
62248;BME280;48237;50.140;8.486;2022-08-07T06:34:41;100395.37;;;15.87;42.99
62248;BME280;48237;50.140;8.486;2022-08-07T06:37:08;100391.38;;;16.95;41.25
62248;BME280;48237;50.140;8.486;2022-08-07T06:39:35;100395.07;;;16.41;41.47
62248;BME280;48237;50.140;8.486;2022-08-07T06:42:06;100397.60;;;16.29;41.26
62248;BME280;48237;50.140;8.486;2022-08-07T06:44:35;100388.94;;;16.12;41.22
62248;BME280;48237;50.140;8.486;2022-08-07T06:47:04;100407.40;;;16.46;42.24
62248;BME280;48237;50.140;8.486;2022-08-07T06:49:31;100393.83;;;16.59;41.74
62248;BME280;48237;50.140;8.486;2022-08-07T06:51:59;100383.16;;;16.40;42.94
62248;BME280;48237;50.140;8.486;2022-08-07T06:54:28;100387.33;;;16.62;42.07
62248;BME280;48237;50.140;8.486;2022-08-07T06:56:58;100387.46;;;16.02;43.07
62248;BME280;48237;50.140;8.486;2022-08-07T06:59:30;100392.64;;;16.84;42.64
62248;BME280;48237;50.140;8.486;2022-08-07T07:01:58;100395.69;;;16.44;41.71
62248;BME280;48237;50.140;8.486;2022-08-07T07:04:27;100386.50;;;16.13;42.32
62248;BME280;48237;50.140;8.486;2022-08-07T07:06:55;100383.65;;;16.69;42.27
62248;BME280;48237;50.140;8.486;2022-08-07T07:09:26;100391.54;;;16.03;42.26
62248;BME280;48237;50.140;8.486;2022-08-07T07:12:01;100385.50;;;16.22;42.44
62248;BME280;48237;50.140;8.486;2022-08-07T07:14:33;100379.83;;;16.44;42.65
62248;BME280;48237;50.140;8.486;2022-08-07T07:17:07;100382.24;;;16.59;41.74
62248;BME280;48237;50.140;8.486;2022-08-07T07:19:41;100383.48;;;17.17;40.34
62248;BME280;48237;50.140;8.486;2022-08-07T07:22:11;100389.30;;;16.89;40.16
62248;BME280;48237;50.140;8.486;2022-08-07T07:24:40;100381.31;;;16.67;40.52
62248;BME280;48237;50.140;8.486;2022-08-07T07:27:09;100378.00;;;17.28;40.08
62248;BME280;48237;50.140;8.486;2022-08-07T07:29:40;100386.20;;;16.79;41.36
62248;BME280;48237;50.140;8.486;2022-08-07T07:32:13;100385.88;;;17.21;41.43
62248;BME280;48237;50.140;8.486;2022-08-07T07:34:43;100383.22;;;17.08;41.15
62248;BME280;48237;50.140;8.486;2022-08-07T07:37:12;100380.25;;;16.78;41.12
62248;BME280;48237;50.140;8.486;2022-08-07T07:39:41;100375.91;;;18.01;39.36
62248;BME280;48237;50.140;8.486;2022-08-07T07:42:10;100374.14;;;16.62;41.05
62248;BME280;48237;50.140;8.486;2022-08-07T07:44:40;100378.85;;;17.53;39.68
62248;BME280;48237;50.140;8.486;2022-08-07T07:47:09;100372.53;;;17.56;39.95
62248;BME280;48237;50.140;8.486;2022-08-07T07:49:39;100368.25;;;17.43;39.88
62248;BME280;48237;50.140;8.486;2022-08-07T07:52:07;100367.90;;;17.81;39.43
62248;BME280;48237;50.140;8.486;2022-08-07T07:54:36;100369.14;;;17.43;40.27
62248;BME280;48237;50.140;8.486;2022-08-07T07:57:04;100370.34;;;17.72;40.53
62248;BME280;48237;50.140;8.486;2022-08-07T07:59:35;100365.02;;;17.59;39.11
62248;BME280;48237;50.140;8.486;2022-08-07T08:02:04;100363.44;;;17.90;38.87
62248;BME280;48237;50.140;8.486;2022-08-07T08:04:34;100364.19;;;17.70;39.35
62248;BME280;48237;50.140;8.486;2022-08-07T08:07:03;100365.85;;;17.90;39.58
62248;BME280;48237;50.140;8.486;2022-08-07T08:09:33;100361.97;;;17.51;40.97
62248;BME280;48237;50.140;8.486;2022-08-07T08:12:01;100361.24;;;16.94;40.52
62248;BME280;48237;50.140;8.486;2022-08-07T08:14:29;100356.34;;;17.58;40.53
62248;BME280;48237;50.140;8.486;2022-08-07T08:16:57;100359.14;;;18.22;39.24
62248;BME280;48237;50.140;8.486;2022-08-07T08:19:28;100366.70;;;18.18;38.90
62248;BME280;48237;50.140;8.486;2022-08-07T08:21:58;100352.17;;;17.65;39.58
62248;BME280;48237;50.140;8.486;2022-08-07T08:24:27;100358.84;;;18.22;39.07
62248;BME280;48237;50.140;8.486;2022-08-07T08:26:56;100356.32;;;18.05;38.97
62248;BME280;48237;50.140;8.486;2022-08-07T08:29:26;100353.55;;;18.72;38.97
62248;BME280;48237;50.140;8.486;2022-08-07T08:31:55;100361.01;;;18.20;39.05
62248;BME280;48237;50.140;8.486;2022-08-07T08:34:24;100352.99;;;18.14;38.72
62248;BME280;48237;50.140;8.486;2022-08-07T08:36:52;100352.19;;;17.91;40.26
62248;BME280;48237;50.140;8.486;2022-08-07T08:39:21;100358.47;;;18.06;39.70
62248;BME280;48237;50.140;8.486;2022-08-07T08:41:53;100355.35;;;17.05;41.70
62248;BME280;48237;50.140;8.486;2022-08-07T08:44:26;100355.24;;;17.68;41.39
62248;BME280;48237;50.140;8.486;2022-08-07T08:47:04;100348.99;;;18.13;40.18
62248;BME280;48237;50.140;8.486;2022-08-07T08:49:39;100348.50;;;18.33;40.55
62248;BME280;48237;50.140;8.486;2022-08-07T08:52:15;100345.86;;;18.79;40.12
62248;BME280;48237;50.140;8.486;2022-08-07T08:54:48;100347.49;;;18.23;40.28
62248;BME280;48237;50.140;8.486;2022-08-07T08:57:26;100345.01;;;18.32;40.86
62248;BME280;48237;50.140;8.486;2022-08-07T09:00:00;100344.80;;;19.01;39.27
62248;BME280;48237;50.140;8.486;2022-08-07T09:02:36;100342.62;;;18.89;38.98
62248;BME280;48237;50.140;8.486;2022-08-07T09:05:21;100339.74;;;18.40;40.18
62248;BME280;48237;50.140;8.486;2022-08-07T09:10:40;100337.92;;;18.38;41.20
62248;BME280;48237;50.140;8.486;2022-08-07T09:13:16;100337.93;;;18.59;41.08
62248;BME280;48237;50.140;8.486;2022-08-07T09:15:52;100332.36;;;19.01;40.09
62248;BME280;48237;50.140;8.486;2022-08-07T09:18:32;100322.74;;;19.19;39.31
62248;BME280;48237;50.140;8.486;2022-08-07T09:21:11;100333.33;;;18.16;42.40
62248;BME280;48237;50.140;8.486;2022-08-07T09:23:54;100326.03;;;19.01;41.21
62248;BME280;48237;50.140;8.486;2022-08-07T09:26:28;100320.69;;;18.85;43.41
62248;BME280;48237;50.140;8.486;2022-08-07T09:29:05;100311.38;;;18.96;41.90
62248;BME280;48237;50.140;8.486;2022-08-07T09:31:41;100305.45;;;19.64;38.92
62248;BME280;48237;50.140;8.486;2022-08-07T09:34:13;100313.95;;;18.74;42.30
62248;BME280;48237;50.140;8.486;2022-08-07T09:36:53;100308.28;;;19.16;42.29
62248;BME280;48237;50.140;8.486;2022-08-07T09:39:35;100312.45;;;18.78;43.83
62248;BME280;48237;50.140;8.486;2022-08-07T09:42:10;100303.49;;;19.43;41.31
62248;BME280;48237;50.140;8.486;2022-08-07T09:44:48;100300.18;;;19.63;40.62
62248;BME280;48237;50.140;8.486;2022-08-07T09:47:30;100292.05;;;19.24;41.00
62248;BME280;48237;50.140;8.486;2022-08-07T09:50:07;100299.75;;;19.45;42.01
62248;BME280;48237;50.140;8.486;2022-08-07T09:52:44;100293.35;;;19.54;41.07
62248;BME280;48237;50.140;8.486;2022-08-07T09:55:17;100287.63;;;18.94;42.80
62248;BME280;48237;50.140;8.486;2022-08-07T09:58:19;100290.91;;;19.78;42.08
62248;BME280;48237;50.140;8.486;2022-08-07T10:00:59;100284.03;;;19.76;41.88
62248;BME280;48237;50.140;8.486;2022-08-07T10:03:48;100281.35;;;20.14;41.46
62248;BME280;48237;50.140;8.486;2022-08-07T10:06:30;100273.80;;;19.99;40.41
62248;BME280;48237;50.140;8.486;2022-08-07T10:09:12;100263.96;;;20.58;39.50
62248;BME280;48237;50.140;8.486;2022-08-07T10:11:52;100267.22;;;20.15;38.52
62248;BME280;48237;50.140;8.486;2022-08-07T10:14:40;100259.42;;;20.72;38.02
62248;BME280;48237;50.140;8.486;2022-08-07T10:17:25;100255.35;;;20.68;38.46
62248;BME280;48237;50.140;8.486;2022-08-07T10:20:09;100253.81;;;20.23;40.12
62248;BME280;48237;50.140;8.486;2022-08-07T10:22:58;100249.36;;;20.07;40.01
62248;BME280;48237;50.140;8.486;2022-08-07T10:25:36;100246.04;;;20.66;38.77
62248;BME280;48237;50.140;8.486;2022-08-07T10:28:15;100245.68;;;20.26;39.38
62248;BME280;48237;50.140;8.486;2022-08-07T10:30:56;100246.41;;;20.06;40.02
62248;BME280;48237;50.140;8.486;2022-08-07T10:33:47;100242.47;;;20.28;40.24
62248;BME280;48237;50.140;8.486;2022-08-07T10:36:27;100239.41;;;19.82;41.59
62248;BME280;48237;50.140;8.486;2022-08-07T10:39:07;100233.96;;;20.63;39.61
62248;BME280;48237;50.140;8.486;2022-08-07T10:41:41;100233.59;;;20.97;37.56
62248;BME280;48237;50.140;8.486;2022-08-07T10:44:16;100234.71;;;21.12;36.74
62248;BME280;48237;50.140;8.486;2022-08-07T10:46:50;100233.26;;;20.06;39.79
62248;BME280;48237;50.140;8.486;2022-08-07T10:49:22;100233.83;;;20.13;37.87
62248;BME280;48237;50.140;8.486;2022-08-07T10:51:56;100232.09;;;20.30;37.27
62248;BME280;48237;50.140;8.486;2022-08-07T10:54:31;100235.16;;;20.11;36.43
62248;BME280;48237;50.140;8.486;2022-08-07T10:57:07;100226.84;;;21.16;35.59
62248;BME280;48237;50.140;8.486;2022-08-07T10:59:49;100228.55;;;20.80;37.77
62248;BME280;48237;50.140;8.486;2022-08-07T11:02:26;100231.12;;;20.92;36.19
62248;BME280;48237;50.140;8.486;2022-08-07T11:05:06;100231.66;;;20.45;36.78
62248;BME280;48237;50.140;8.486;2022-08-07T11:07:39;100221.63;;;21.57;34.73
62248;BME280;48237;50.140;8.486;2022-08-07T11:10:16;100217.14;;;21.04;35.71
62248;BME280;48237;50.140;8.486;2022-08-07T11:12:49;100217.29;;;20.52;37.08
62248;BME280;48237;50.140;8.486;2022-08-07T11:15:21;100210.04;;;20.81;36.39
62248;BME280;48237;50.140;8.486;2022-08-07T11:17:57;100210.96;;;20.81;36.01
62248;BME280;48237;50.140;8.486;2022-08-07T11:20:38;100200.76;;;20.43;36.40
62248;BME280;48237;50.140;8.486;2022-08-07T11:23:16;100202.33;;;21.46;35.51
62248;BME280;48237;50.140;8.486;2022-08-07T11:25:50;100197.90;;;21.40;35.10
62248;BME280;48237;50.140;8.486;2022-08-07T11:28:26;100191.59;;;21.39;35.02
62248;BME280;48237;50.140;8.486;2022-08-07T11:30:58;100191.54;;;20.94;35.89
62248;BME280;48237;50.140;8.486;2022-08-07T11:33:33;100194.67;;;20.74;35.23
62248;BME280;48237;50.140;8.486;2022-08-07T11:36:17;100193.82;;;20.62;35.30
62248;BME280;48237;50.140;8.486;2022-08-07T11:39:00;100186.29;;;21.04;35.43
62248;BME280;48237;50.140;8.486;2022-08-07T11:41:36;100185.18;;;21.87;34.33
62248;BME280;48237;50.140;8.486;2022-08-07T11:44:13;100175.22;;;22.59;32.90
62248;BME280;48237;50.140;8.486;2022-08-07T11:46:54;100166.79;;;22.66;32.88
62248;BME280;48237;50.140;8.486;2022-08-07T11:49:40;100185.22;;;21.26;34.15
62248;BME280;48237;50.140;8.486;2022-08-07T11:52:23;100187.38;;;21.84;32.25
62248;BME280;48237;50.140;8.486;2022-08-07T11:55:01;100177.89;;;21.90;31.96
62248;BME280;48237;50.140;8.486;2022-08-07T11:57:35;100162.77;;;22.55;31.79
62248;BME280;48237;50.140;8.486;2022-08-07T12:00:07;100149.79;;;23.65;30.59
62248;BME280;48237;50.140;8.486;2022-08-07T12:02:50;100151.45;;;22.46;31.88
62248;BME280;48237;50.140;8.486;2022-08-07T12:05:27;100159.18;;;22.12;33.32
62248;BME280;48237;50.140;8.486;2022-08-07T12:08:01;100156.96;;;21.46;33.36
62248;BME280;48237;50.140;8.486;2022-08-07T12:10:37;100149.94;;;20.65;33.28
62248;BME280;48237;50.140;8.486;2022-08-07T12:13:10;100153.32;;;22.04;31.82
62248;BME280;48237;50.140;8.486;2022-08-07T12:15:44;100159.00;;;21.01;33.42
62248;BME280;48237;50.140;8.486;2022-08-07T12:18:23;100146.31;;;22.20;32.63
62248;BME280;48237;50.140;8.486;2022-08-07T12:21:04;100155.75;;;21.77;32.40
62248;BME280;48237;50.140;8.486;2022-08-07T12:23:45;100153.74;;;21.90;31.19
62248;BME280;48237;50.140;8.486;2022-08-07T12:26:18;100148.38;;;21.76;32.43
62248;BME280;48237;50.140;8.486;2022-08-07T12:28:55;100136.53;;;22.01;32.03
62248;BME280;48237;50.140;8.486;2022-08-07T12:31:30;100136.02;;;22.64;31.41
62248;BME280;48237;50.140;8.486;2022-08-07T12:34:02;100142.30;;;21.30;33.03
62248;BME280;48237;50.140;8.486;2022-08-07T12:36:32;100146.95;;;21.50;32.81
62248;BME280;48237;50.140;8.486;2022-08-07T12:39:02;100134.98;;;21.75;31.88
62248;BME280;48237;50.140;8.486;2022-08-07T12:41:33;100136.81;;;21.50;33.05
62248;BME280;48237;50.140;8.486;2022-08-07T12:44:05;100135.45;;;21.57;32.40
62248;BME280;48237;50.140;8.486;2022-08-07T12:46:48;100116.73;;;23.72;31.35
62248;BME280;48237;50.140;8.486;2022-08-07T12:49:32;100111.02;;;23.98;29.33
62248;BME280;48237;50.140;8.486;2022-08-07T12:52:05;100112.85;;;25.57;27.81
62248;BME280;48237;50.140;8.486;2022-08-07T12:54:46;100123.89;;;22.74;30.40
62248;BME280;48237;50.140;8.486;2022-08-07T12:57:19;100118.20;;;22.21;31.05
62248;BME280;48237;50.140;8.486;2022-08-07T12:59:52;100116.30;;;21.77;32.14
62248;BME280;48237;50.140;8.486;2022-08-07T13:02:36;100121.61;;;21.64;32.56
62248;BME280;48237;50.140;8.486;2022-08-07T13:05:19;100115.42;;;21.27;32.96
62248;BME280;48237;50.140;8.486;2022-08-07T13:08:05;100112.42;;;21.44;31.79
62248;BME280;48237;50.140;8.486;2022-08-07T13:10:48;100107.53;;;21.78;32.57
62248;BME280;48237;50.140;8.486;2022-08-07T13:13:29;100111.39;;;21.96;31.84
62248;BME280;48237;50.140;8.486;2022-08-07T13:16:04;100107.39;;;21.71;31.88